Time;durP1;ratioP1;P1;durP2;ratioP2;P2;SDS_P1;SDS_P2;PMS_P1;PMS_P2;Temp;Humidity;BMP_temperature;BMP_pressure;BME280_temperature;BME280_humidity;BME280_pressure;Samples;Min_cycle;Max_cycle;Signal;HPM_P1;HPM_P2
2021/12/26 00:00:18;;;;;;;;;;;-2.30;99.90;;;;;;4995284;28;20004;-51
2021/12/26 00:02:44;;;;;;;;;;;-2.30;99.90;;;;;;4995037;28;20502;-50
2021/12/26 00:05:10;;;;;;;;;;;-2.30;99.90;;;;;;4996972;28;20009;-47
2021/12/26 00:07:35;;;;;;;;;;;-2.30;99.90;;;;;;4996328;28;20194;-50
2021/12/26 00:10:01;;;;;;;;;;;-2.30;99.90;;;;;;4996668;28;19916;-50
2021/12/26 00:12:27;;;;;;;;;;;-2.40;99.90;;;;;;4995859;28;19920;-50
2021/12/26 00:14:52;;;;;;;;;;;-2.40;99.90;;;;;;4996743;28;20277;-51
2021/12/26 00:17:18;;;;;;;;;;;-2.40;99.90;;;;;;4986234;28;19906;-49
2021/12/26 00:19:43;;;;;;;;;;;-2.30;99.90;;;;;;4976518;28;20519;-46
2021/12/26 00:22:09;;;;;;;;;;;-2.30;99.90;;;;;;4975263;28;20625;-47
2021/12/26 00:24:35;;;;;;;;;;;-2.30;99.90;;;;;;4975622;28;19906;-52
2021/12/26 00:27:04;;;;;;;;;;;-2.30;99.90;;;;;;4975305;28;20038;-50
2021/12/26 00:29:29;;;;;;;;;;;-2.40;99.90;;;;;;4976413;28;19914;-49
2021/12/26 00:31:55;;;;;;;;;;;-2.30;99.90;;;;;;4976428;28;19906;-50
2021/12/26 00:34:21;;;;;;;;;;;-2.40;99.90;;;;;;4976603;28;19925;-51
2021/12/26 00:36:46;;;;;;;;;;;-2.30;99.90;;;;;;4976104;28;20004;-47
2021/12/26 00:39:11;;;;;;;;;;;-2.40;99.90;;;;;;4976057;28;19949;-49
2021/12/26 00:41:39;;;;;;;;;;;-2.50;99.90;;;;;;4976666;28;20008;-47
2021/12/26 00:44:06;;;;;;;;;;;-2.50;99.90;;;;;;4976756;28;19906;-50
2021/12/26 00:46:32;;;;;;;;;;;-2.50;99.90;;;;;;4980451;28;19906;-48
2021/12/26 00:48:57;;;;;;;;;;;-2.50;99.90;;;;;;4997235;28;19916;-48
2021/12/26 00:51:23;;;;;;;;;;;-2.50;99.90;;;;;;4995938;28;19910;-50
2021/12/26 00:53:48;;;;;;;;;;;-2.70;99.90;;;;;;4998862;28;19917;-49
2021/12/26 00:56:15;;;;;;;;;;;-2.60;99.90;;;;;;4999214;28;20007;-50
2021/12/26 00:58:40;;;;;;;;;;;-2.60;99.90;;;;;;4998978;28;20209;-50
2021/12/26 01:01:06;;;;;;;;;;;-2.60;99.90;;;;;;4996863;28;20255;-48
2021/12/26 01:03:31;;;;;;;;;;;-2.50;99.90;;;;;;4997132;28;19909;-47
2021/12/26 01:05:57;;;;;;;;;;;-2.50;99.90;;;;;;5015662;28;19909;-47
2021/12/26 01:08:26;;;;;;;;;;;-2.60;99.90;;;;;;4997851;28;19906;-50
2021/12/26 01:10:55;;;;;;;;;;;-2.50;99.90;;;;;;5017526;28;20203;-47
2021/12/26 01:13:28;;;;;;;;;;;-2.50;99.90;;;;;;5017292;28;19909;-48
2021/12/26 01:15:55;;;;;;;;;;;-2.50;99.90;;;;;;5001003;28;19917;-47
2021/12/26 01:18:21;;;;;;;;;;;-2.60;99.90;;;;;;5001225;28;19909;-48
2021/12/26 01:21:04;;;;;;;;;;;-2.60;99.90;;;;;;5000852;28;19917;-47
2021/12/26 01:23:30;;;;;;;;;;;-2.70;99.90;;;;;;5016399;28;19910;-49
2021/12/26 01:25:56;;;;;;;;;;;-2.90;99.90;;;;;;4999712;28;19910;-51
2021/12/26 01:28:23;;;;;;;;;;;-2.80;99.90;;;;;;4999577;28;19906;-50
2021/12/26 01:30:49;;;;;;;;;;;-2.80;99.90;;;;;;4999799;28;19905;-47
2021/12/26 01:33:16;;;;;;;;;;;-2.90;99.90;;;;;;4999538;28;19921;-47
2021/12/26 01:35:42;;;;;;;;;;;-3.00;99.90;;;;;;4999738;28;20335;-47
2021/12/26 01:38:13;;;;;;;;;;;-3.20;99.90;;;;;;5000371;28;20268;-50
2021/12/26 01:40:41;;;;;;;;;;;-3.40;99.90;;;;;;5017896;28;19936;-48
2021/12/26 01:43:07;;;;;;;;;;;-3.50;99.90;;;;;;5000027;28;19954;-49
2021/12/26 01:45:32;;;;;;;;;;;-3.50;99.90;;;;;;4999377;28;19905;-50
2021/12/26 01:47:58;;;;;;;;;;;-3.50;99.90;;;;;;4997541;28;19916;-49
2021/12/26 01:50:24;;;;;;;;;;;-3.40;99.90;;;;;;5013398;28;19909;-47
2021/12/26 01:52:49;;;;;;;;;;;-3.30;99.90;;;;;;4998227;28;20071;-48
2021/12/26 01:55:36;;;;;;;;;;;-3.30;99.90;;;;;;4997643;28;19996;-48
2021/12/26 01:58:02;;;;;;;;;;;-3.30;99.90;;;;;;4997222;28;20381;-48
2021/12/26 02:00:28;;;;;;;;;;;-3.30;99.90;;;;;;4995812;28;19916;-49
2021/12/26 02:02:53;;;;;;;;;;;-3.30;99.90;;;;;;5014100;28;19917;-48
2021/12/26 02:05:19;;;;;;;;;;;-3.30;99.90;;;;;;4996841;28;19917;-48
2021/12/26 02:07:44;;;;;;;;;;;-3.40;99.90;;;;;;4998413;28;20202;-46
2021/12/26 02:10:10;;;;;;;;;;;-3.50;99.90;;;;;;4996797;28;19984;-51
2021/12/26 02:12:36;;;;;;;;;;;-3.40;99.90;;;;;;5011873;28;19916;-48
2021/12/26 02:15:02;;;;;;;;;;;-3.40;99.90;;;;;;4994577;28;19912;-52
2021/12/26 02:17:28;;;;;;;;;;;-3.30;99.90;;;;;;5011962;28;20355;-50
2021/12/26 02:20:12;;;;;;;;;;;-3.30;99.90;;;;;;4993870;28;19909;-49
2021/12/26 02:22:40;;;;;;;;;;;-3.20;99.90;;;;;;5014618;28;20286;-50
2021/12/26 02:27:32;;;;;;;;;;;-3.20;99.90;;;;;;5015523;28;20277;-47
2021/12/26 02:29:58;;;;;;;;;;;-3.20;99.90;;;;;;5015242;28;20062;-47
2021/12/26 02:32:24;;;;;;;;;;;-3.10;99.90;;;;;;4997560;28;19917;-48
2021/12/26 02:34:49;;;;;;;;;;;-3.10;99.90;;;;;;4997374;28;19920;-48
2021/12/26 02:37:15;;;;;;;;;;;-3.10;99.90;;;;;;4996939;28;20267;-51
2021/12/26 02:39:40;;;;;;;;;;;-3.10;99.90;;;;;;4998152;28;19909;-50
2021/12/26 02:42:06;;;;;;;;;;;-3.10;99.90;;;;;;4998635;28;19916;-53
2021/12/26 02:44:31;;;;;;;;;;;-3.10;99.90;;;;;;4998935;28;20371;-53
2021/12/26 02:46:57;;;;;;;;;;;-3.10;99.90;;;;;;4999373;28;20263;-50
2021/12/26 02:49:23;;;;;;;;;;;-3.20;99.90;;;;;;4998472;28;20183;-48
2021/12/26 02:51:49;;;;;;;;;;;-3.20;99.90;;;;;;5015981;28;19961;-47
2021/12/26 02:54:14;;;;;;;;;;;-3.20;99.90;;;;;;4998505;28;19949;-49
2021/12/26 02:56:40;;;;;;;;;;;-3.30;99.90;;;;;;4997054;28;20006;-49
2021/12/26 02:59:05;;;;;;;;;;;-3.30;99.90;;;;;;4998138;28;19999;-48
2021/12/26 03:01:31;;;;;;;;;;;-3.40;99.90;;;;;;4996162;28;19936;-51
2021/12/26 03:03:57;;;;;;;;;;;-3.40;99.90;;;;;;4995441;28;19940;-48
2021/12/26 03:06:28;;;;;;;;;;;-3.40;99.90;;;;;;5013010;28;19909;-47
2021/12/26 03:08:55;;;;;;;;;;;-3.30;99.90;;;;;;4996580;28;19921;-51
2021/12/26 03:11:20;;;;;;;;;;;-3.40;99.90;;;;;;5013701;28;19995;-50
2021/12/26 03:13:46;;;;;;;;;;;-3.40;99.90;;;;;;4997172;28;20024;-48
2021/12/26 03:16:12;;;;;;;;;;;-3.50;99.90;;;;;;5015547;28;20024;-51
2021/12/26 03:18:37;;;;;;;;;;;-3.50;99.90;;;;;;4997549;28;20058;-49
2021/12/26 03:21:02;;;;;;;;;;;-3.50;99.90;;;;;;4997526;28;19909;-49
2021/12/26 03:23:28;;;;;;;;;;;-3.60;99.90;;;;;;4996202;28;19905;-49
2021/12/26 03:25:55;;;;;;;;;;;-3.60;99.90;;;;;;4997441;28;19910;-49
2021/12/26 03:28:21;;;;;;;;;;;-3.60;99.90;;;;;;4996838;28;20064;-50
2021/12/26 03:30:46;;;;;;;;;;;-3.60;99.90;;;;;;4997020;28;20307;-52
2021/12/26 03:33:12;;;;;;;;;;;-3.70;99.90;;;;;;4997209;28;19960;-52
2021/12/26 03:35:38;;;;;;;;;;;-3.70;99.90;;;;;;4997189;28;19917;-50
2021/12/26 03:38:04;;;;;;;;;;;-3.70;99.90;;;;;;5013735;28;20237;-48
2021/12/26 03:40:30;;;;;;;;;;;-3.60;99.90;;;;;;5012614;28;19913;-49
2021/12/26 03:42:56;;;;;;;;;;;-3.60;99.90;;;;;;5012916;28;20046;-50
2021/12/26 03:45:22;;;;;;;;;;;-3.70;99.90;;;;;;4996421;28;19905;-49
2021/12/26 03:47:50;;;;;;;;;;;-3.70;99.90;;;;;;4995315;28;19920;-51
2021/12/26 03:50:16;;;;;;;;;;;-3.80;99.90;;;;;;4995718;28;19959;-48
2021/12/26 03:52:42;;;;;;;;;;;-3.70;99.90;;;;;;4996499;28;20271;-48
2021/12/26 03:55:07;;;;;;;;;;;-3.80;99.90;;;;;;5014055;28;20281;-50
2021/12/26 03:57:33;;;;;;;;;;;-3.80;99.90;;;;;;4997401;28;19991;-48
2021/12/26 03:59:58;;;;;;;;;;;-3.80;99.90;;;;;;4998402;28;19913;-48
2021/12/26 04:02:25;;;;;;;;;;;-3.80;99.90;;;;;;4997573;28;19909;-47
2021/12/26 04:04:51;;;;;;;;;;;-3.90;99.90;;;;;;4994969;28;19918;-50
2021/12/26 04:07:16;;;;;;;;;;;-3.90;99.90;;;;;;5012402;28;20219;-51
2021/12/26 04:09:42;;;;;;;;;;;-3.80;99.90;;;;;;4995779;28;20049;-47
2021/12/26 04:12:07;;;;;;;;;;;-3.80;99.90;;;;;;4996397;28;20076;-50
2021/12/26 04:14:33;;;;;;;;;;;-3.90;99.90;;;;;;4996811;28;20336;-47
2021/12/26 04:16:58;;;;;;;;;;;-3.90;99.90;;;;;;4998377;28;19917;-51
2021/12/26 04:19:24;;;;;;;;;;;-4.00;99.90;;;;;;4996910;28;19919;-49
2021/12/26 04:21:49;;;;;;;;;;;-3.90;99.90;;;;;;5014933;28;20274;-49
2021/12/26 04:24:15;;;;;;;;;;;-3.90;99.90;;;;;;5013929;28;19909;-51
2021/12/26 04:26:40;;;;;;;;;;;-3.90;99.90;;;;;;4995063;28;19909;-49
2021/12/26 04:29:07;;;;;;;;;;;-4.00;99.90;;;;;;4994893;28;20297;-48
2021/12/26 04:31:32;;;;;;;;;;;-4.00;99.90;;;;;;4996417;28;19917;-52
2021/12/26 04:33:58;;;;;;;;;;;-4.00;99.90;;;;;;4996956;28;19913;-49
2021/12/26 04:36:24;;;;;;;;;;;-4.00;99.90;;;;;;4995432;28;20277;-51
2021/12/26 04:38:49;;;;;;;;;;;-3.90;99.90;;;;;;5013723;28;20237;-47
2021/12/26 04:41:15;;;;;;;;;;;-4.00;99.90;;;;;;4995587;28;19906;-50
2021/12/26 04:43:40;;;;;;;;;;;-4.00;99.90;;;;;;4998546;28;19909;-49
2021/12/26 04:46:07;;;;;;;;;;;-4.00;99.90;;;;;;5017902;28;19909;-50
2021/12/26 04:48:33;;;;;;;;;;;-4.00;99.90;;;;;;5000572;28;20055;-49
2021/12/26 04:50:59;;;;;;;;;;;-4.00;99.90;;;;;;4999914;28;19940;-48
2021/12/26 04:53:25;;;;;;;;;;;-4.00;99.90;;;;;;5000972;28;20243;-50
2021/12/26 04:55:51;;;;;;;;;;;-4.00;99.90;;;;;;5001229;28;20350;-48
2021/12/26 04:58:16;;;;;;;;;;;-4.00;99.90;;;;;;5001773;28;20004;-51
2021/12/26 05:00:42;;;;;;;;;;;-4.00;99.90;;;;;;5000056;28;19906;-49
2021/12/26 05:03:08;;;;;;;;;;;-4.10;99.90;;;;;;4999235;28;19916;-48
2021/12/26 05:05:34;;;;;;;;;;;-4.10;99.90;;;;;;4999177;28;19959;-51
2021/12/26 05:08:00;;;;;;;;;;;-4.10;99.90;;;;;;5017729;28;19906;-48
2021/12/26 05:10:28;;;;;;;;;;;-4.10;99.90;;;;;;5000310;28;20245;-50
2021/12/26 05:12:54;;;;;;;;;;;-4.10;99.90;;;;;;5016552;28;20271;-52
2021/12/26 05:15:21;;;;;;;;;;;-4.20;99.90;;;;;;5017192;28;20230;-51
2021/12/26 05:17:47;;;;;;;;;;;-4.20;99.90;;;;;;5000238;28;19912;-52
2021/12/26 05:20:12;;;;;;;;;;;-4.20;99.90;;;;;;5017894;28;19921;-50
2021/12/26 05:22:38;;;;;;;;;;;-4.20;99.90;;;;;;5017751;28;20313;-51
2021/12/26 05:25:06;;;;;;;;;;;-4.20;99.90;;;;;;5000101;28;19996;-51
2021/12/26 05:27:32;;;;;;;;;;;-4.20;99.90;;;;;;5016868;28;19971;-51
2021/12/26 05:29:58;;;;;;;;;;;-4.30;99.90;;;;;;4999335;28;19912;-51
2021/12/26 05:32:23;;;;;;;;;;;-4.30;99.90;;;;;;5016723;28;19967;-50
2021/12/26 05:34:48;;;;;;;;;;;-4.30;99.90;;;;;;4999202;28;19971;-49
2021/12/26 05:37:14;;;;;;;;;;;-4.40;99.90;;;;;;4998293;28;19913;-51
2021/12/26 05:39:40;;;;;;;;;;;-4.40;99.90;;;;;;4998600;28;19916;-50
2021/12/26 05:42:06;;;;;;;;;;;-4.50;99.90;;;;;;5016157;28;20250;-49
2021/12/26 05:44:31;;;;;;;;;;;-4.40;99.90;;;;;;5000017;28;19912;-47
2021/12/26 05:46:57;;;;;;;;;;;-4.40;99.90;;;;;;4999829;28;19912;-51
2021/12/26 05:49:22;;;;;;;;;;;-4.50;99.90;;;;;;5017636;28;19916;-50
2021/12/26 05:51:47;;;;;;;;;;;-4.40;99.90;;;;;;5000053;28;19913;-51
2021/12/26 05:54:13;;;;;;;;;;;-4.40;99.90;;;;;;4999144;28;20008;-49
2021/12/26 05:56:39;;;;;;;;;;;-4.50;99.90;;;;;;4996903;28;19916;-50
2021/12/26 05:59:04;;;;;;;;;;;-4.60;99.90;;;;;;4997640;28;20298;-51
2021/12/26 06:01:30;;;;;;;;;;;-4.60;99.90;;;;;;5014235;28;19920;-51
2021/12/26 06:03:55;;;;;;;;;;;-4.60;99.90;;;;;;5014243;28;19909;-50
2021/12/26 06:06:21;;;;;;;;;;;-4.60;99.90;;;;;;5011661;28;20225;-50
2021/12/26 06:08:46;;;;;;;;;;;-4.50;99.90;;;;;;4993887;28;19905;-52
2021/12/26 06:11:11;;;;;;;;;;;-4.60;99.90;;;;;;4994070;28;19905;-48
2021/12/26 06:13:37;;;;;;;;;;;-4.60;99.90;;;;;;4994511;28;19966;-50
2021/12/26 06:16:02;;;;;;;;;;;-4.60;99.90;;;;;;4995375;28;19905;-51
2021/12/26 06:18:28;;;;;;;;;;;-4.70;99.90;;;;;;4995117;28;19913;-50
2021/12/26 06:20:54;;;;;;;;;;;-4.70;99.90;;;;;;4993746;28;20316;-51
2021/12/26 06:23:19;;;;;;;;;;;-4.70;99.90;;;;;;5011920;28;19982;-51
2021/12/26 06:25:45;;;;;;;;;;;-4.60;99.90;;;;;;4992799;28;19920;-54
2021/12/26 06:28:10;;;;;;;;;;;-4.60;99.90;;;;;;4994169;28;19968;-48
2021/12/26 06:30:36;;;;;;;;;;;-4.60;99.90;;;;;;4993985;28;19917;-50
2021/12/26 06:33:01;;;;;;;;;;;-4.60;99.90;;;;;;4994483;28;19975;-54
2021/12/26 06:35:27;;;;;;;;;;;-4.70;99.90;;;;;;5011273;28;20433;-52
2021/12/26 06:37:52;;;;;;;;;;;-4.70;99.90;;;;;;4994425;28;20012;-51
2021/12/26 06:40:18;;;;;;;;;;;-4.70;99.90;;;;;;4995712;28;19912;-53
2021/12/26 06:42:45;;;;;;;;;;;-4.70;99.90;;;;;;4995004;28;20197;-48
2021/12/26 06:45:12;;;;;;;;;;;-4.70;99.90;;;;;;4996268;28;19912;-51
2021/12/26 06:47:38;;;;;;;;;;;-4.70;99.90;;;;;;5014141;28;20286;-50
2021/12/26 06:50:04;;;;;;;;;;;-4.70;99.90;;;;;;4998988;28;19951;-53
2021/12/26 06:52:29;;;;;;;;;;;-4.70;99.90;;;;;;5015050;28;19918;-48
2021/12/26 06:54:55;;;;;;;;;;;-4.80;99.90;;;;;;4995889;28;19914;-48
2021/12/26 06:57:20;;;;;;;;;;;-4.80;99.90;;;;;;4995580;28;19916;-50
2021/12/26 06:59:46;;;;;;;;;;;-4.80;99.90;;;;;;4996715;28;19912;-52
2021/12/26 07:02:11;;;;;;;;;;;-4.70;99.90;;;;;;4996422;28;20241;-53
2021/12/26 07:04:37;;;;;;;;;;;-4.70;99.90;;;;;;4998064;28;20187;-48
2021/12/26 07:07:02;;;;;;;;;;;-4.70;99.90;;;;;;5015671;28;19910;-53
2021/12/26 07:09:28;;;;;;;;;;;-4.70;99.90;;;;;;5016143;28;20245;-52
2021/12/26 07:11:53;;;;;;;;;;;-4.80;99.90;;;;;;4998326;28;19979;-54
2021/12/26 07:14:19;;;;;;;;;;;-4.90;99.90;;;;;;4995669;28;19919;-48
2021/12/26 07:16:44;;;;;;;;;;;-4.90;99.90;;;;;;4996024;28;19906;-48
2021/12/26 07:19:10;;;;;;;;;;;-4.90;99.90;;;;;;4995512;28;20218;-51
2021/12/26 07:21:35;;;;;;;;;;;-4.90;99.90;;;;;;5013422;28;20262;-50
2021/12/26 07:24:01;;;;;;;;;;;-4.90;99.90;;;;;;5013821;28;19905;-50
2021/12/26 07:26:26;;;;;;;;;;;-4.90;99.90;;;;;;4994754;28;19932;-52
2021/12/26 07:28:52;;;;;;;;;;;-5.00;99.90;;;;;;4993281;28;20190;-50
2021/12/26 07:31:17;;;;;;;;;;;-5.00;99.90;;;;;;5008062;28;20126;-48
2021/12/26 07:33:43;;;;;;;;;;;-5.00;99.90;;;;;;4992715;28;19944;-51
2021/12/26 07:36:08;;;;;;;;;;;-5.00;99.90;;;;;;5009238;28;19920;-50
2021/12/26 07:38:34;;;;;;;;;;;-5.10;99.90;;;;;;4992045;28;19905;-50
2021/12/26 07:40:59;;;;;;;;;;;-5.10;99.90;;;;;;4991420;28;20163;-48
2021/12/26 07:43:25;;;;;;;;;;;-5.20;99.90;;;;;;4993662;28;20266;-50
2021/12/26 07:45:50;;;;;;;;;;;-5.20;99.90;;;;;;4995198;28;19909;-53
2021/12/26 07:48:16;;;;;;;;;;;-5.20;99.90;;;;;;4996282;28;20189;-49
2021/12/26 07:50:41;;;;;;;;;;;-5.20;99.90;;;;;;4996027;28;19909;-52
2021/12/26 07:53:10;;;;;;;;;;;-5.20;99.90;;;;;;4994255;28;19917;-49
2021/12/26 07:55:36;;;;;;;;;;;-5.20;99.90;;;;;;4996598;28;19992;-50
2021/12/26 07:58:02;;;;;;;;;;;-5.20;99.90;;;;;;4995214;28;20077;-48
2021/12/26 08:00:27;;;;;;;;;;;-5.40;99.90;;;;;;4994674;28;19913;-50
2021/12/26 08:02:54;;;;;;;;;;;-5.30;99.90;;;;;;4994279;28;19913;-53
2021/12/26 08:05:20;;;;;;;;;;;-5.20;99.90;;;;;;4976762;28;19925;-49
2021/12/26 08:07:46;;;;;;;;;;;-5.20;99.90;;;;;;4974591;28;19910;-52
2021/12/26 08:10:11;;;;;;;;;;;-5.20;99.90;;;;;;4976221;28;19917;-49
2021/12/26 08:12:36;;;;;;;;;;;-5.10;99.90;;;;;;4975742;28;20403;-50
2021/12/26 08:15:02;;;;;;;;;;;-5.00;99.90;;;;;;4975372;28;20275;-52
2021/12/26 08:17:28;;;;;;;;;;;-5.00;99.90;;;;;;4973565;28;20211;-51
2021/12/26 08:19:54;;;;;;;;;;;-5.00;99.90;;;;;;4969701;28;19910;-50
2021/12/26 08:22:19;;;;;;;;;;;-5.00;99.90;;;;;;4958846;28;19910;-54
2021/12/26 08:24:45;;;;;;;;;;;-5.00;99.90;;;;;;4959205;28;19993;-49
2021/12/26 08:27:10;;;;;;;;;;;-5.00;99.90;;;;;;4959217;28;19910;-50
2021/12/26 08:29:36;;;;;;;;;;;-4.90;99.90;;;;;;4975368;28;19917;-53
2021/12/26 08:32:02;;;;;;;;;;;-4.90;99.90;;;;;;4957421;28;19906;-52
2021/12/26 08:34:27;;;;;;;;;;;-4.80;99.90;;;;;;4956085;28;20173;-51
2021/12/26 08:37:02;;;;;;;;;;;-4.80;99.90;;;;;;4953272;28;19910;-54
2021/12/26 08:39:29;;;;;;;;;;;-4.80;99.90;;;;;;4969170;28;19968;-50
2021/12/26 08:41:55;;;;;;;;;;;-4.80;99.90;;;;;;4953967;28;20260;-49
2021/12/26 08:44:21;;;;;;;;;;;-4.80;99.90;;;;;;4969325;28;20259;-50
2021/12/26 08:46:46;;;;;;;;;;;-4.70;99.90;;;;;;4951939;28;19938;-49
2021/12/26 08:49:12;;;;;;;;;;;-4.70;99.90;;;;;;4953772;28;19922;-52
2021/12/26 08:51:38;;;;;;;;;;;-4.70;99.90;;;;;;4970945;28;19941;-50
2021/12/26 08:54:04;;;;;;;;;;;-4.70;99.90;;;;;;4969839;28;19965;-54
2021/12/26 08:56:30;;;;;;;;;;;-4.80;99.90;;;;;;4969074;28;19906;-48
2021/12/26 08:58:55;;;;;;;;;;;-4.80;99.90;;;;;;4968162;28;20029;-50
2021/12/26 09:01:21;;;;;;;;;;;-4.80;99.90;;;;;;4967276;28;19910;-54
2021/12/26 09:03:46;;;;;;;;;;;-4.90;99.90;;;;;;4967466;28;20252;-50
2021/12/26 09:06:12;;;;;;;;;;;-4.90;99.90;;;;;;4967299;28;19944;-53
2021/12/26 09:08:38;;;;;;;;;;;-4.80;99.90;;;;;;4969221;28;20070;-53
2021/12/26 09:11:03;;;;;;;;;;;-4.80;99.90;;;;;;4968937;28;20267;-50
2021/12/26 09:13:29;;;;;;;;;;;-4.70;99.90;;;;;;4969411;28;19909;-49
2021/12/26 09:15:54;;;;;;;;;;;-4.40;99.90;;;;;;4970812;28;19910;-49
2021/12/26 09:18:20;;;;;;;;;;;-3.80;99.90;;;;;;4969727;28;19949;-51
2021/12/26 09:20:46;;;;;;;5.07;3.03;;;-3.00;99.90;;;;;;4967896;28;20198;-51
2021/12/26 09:23:11;;;;;;;;;;;-2.00;99.90;;;;;;4967333;28;20026;-50
2021/12/26 09:25:37;;;;;;;5.93;4.40;;;-1.20;99.90;;;;;;4968564;28;20400;-49
2021/12/26 09:28:02;;;;;;;5.63;4.27;;;-0.60;99.90;;;;;;4969940;28;20544;-50
2021/12/26 09:30:29;;;;;;;5.00;3.60;;;0.00;99.90;;;;;;4976024;28;20729;-53
2021/12/26 09:32:55;;;;;;;6.27;3.80;;;-0.30;99.90;;;;;;4976965;28;20247;-53
2021/12/26 09:35:21;;;;;;;5.57;3.83;;;-0.70;99.90;;;;;;4977853;28;20160;-50
2021/12/26 09:37:47;;;;;;;7.60;3.13;;;-0.90;99.90;;;;;;4975952;28;20183;-50
2021/12/26 09:40:14;;;;;;;5.27;3.17;;;-1.20;99.90;;;;;;4974366;28;20287;-51
2021/12/26 09:42:40;;;;;;;4.90;3.27;;;-1.50;99.90;;;;;;4975474;28;20172;-50
2021/12/26 09:45:08;;;;;;;5.10;3.30;;;-1.70;99.90;;;;;;4976225;28;20172;-48
2021/12/26 09:47:35;;;;;;;4.97;3.37;;;-2.00;99.90;;;;;;4975952;28;20172;-52
2021/12/26 09:50:01;;;;;;;5.37;3.60;;;-2.20;99.90;;;;;;4976336;28;20203;-49
2021/12/26 09:52:27;;;;;;;5.83;3.90;;;-2.70;99.90;;;;;;4975312;28;20778;-51
2021/12/26 09:54:53;;;;;;;6.43;3.60;;;-3.10;99.90;;;;;;4973829;28;20758;-49
2021/12/26 09:57:19;;;;;;;5.27;3.33;;;-3.00;99.90;;;;;;4974691;28;20172;-51
2021/12/26 09:59:47;;;;;;;4.80;3.50;;;-2.90;99.90;;;;;;4974003;28;20164;-50
2021/12/26 10:02:15;;;;;;;5.93;3.30;;;-2.90;99.90;;;;;;4982606;28;20619;-49
2021/12/26 10:04:42;;;;;;;8.90;4.03;;;-2.80;99.90;;;;;;4990936;28;20182;-51
2021/12/26 10:07:18;;;;;;;8.03;4.20;;;-2.70;99.90;;;;;;4990364;28;20266;-54
2021/12/26 10:09:48;;;;;;;4.40;3.43;;;-2.70;99.90;;;;;;4991204;28;20175;-49
2021/12/26 10:12:15;;;;;;;7.17;4.37;;;-2.70;99.90;;;;;;4994572;28;20337;-51
2021/12/26 10:14:46;;;;;;;5.33;3.90;;;-2.70;99.90;;;;;;4992290;28;20215;-50
2021/12/26 10:17:17;;;;;;;5.87;3.30;;;-2.60;99.90;;;;;;4992586;28;20333;-53
2021/12/26 10:19:46;;;;;;;5.77;3.37;;;-2.50;99.90;;;;;;4992393;28;20274;-51
2021/12/26 10:22:22;;;;;;;5.60;3.70;;;-2.40;99.90;;;;;;4994629;28;20278;-48
2021/12/26 10:24:49;;;;;;;5.13;3.67;;;-2.30;99.90;;;;;;4993400;28;20178;-53
2021/12/26 10:27:27;;;;;;;5.80;3.70;;;-2.30;99.90;;;;;;4994403;28;20274;-53
2021/12/26 10:29:55;;;;;;;4.83;3.17;;;-2.20;99.90;;;;;;4995301;28;20167;-52
2021/12/26 10:32:22;;;;;;;6.83;3.60;;;-2.00;99.90;;;;;;4993289;28;20265;-52
2021/12/26 10:35:01;;;;;;;6.83;3.60;;;-2.00;99.90;;;;;;4992064;28;20172;-50
2021/12/26 10:37:34;;;;;;;;;;;-1.80;99.90;;;;;;4993150;28;20026;-50
2021/12/26 10:40:02;;;;;;;;;;;-1.60;99.90;;;;;;4994929;28;20480;-51
2021/12/26 10:42:30;;;;;;;;;;;-1.50;99.90;;;;;;4991534;28;20013;-52
2021/12/26 10:44:58;;;;;;;;;;;-1.40;99.90;;;;;;4991954;28;19913;-50
2021/12/26 10:47:27;;;;;;;;;;;-1.40;99.90;;;;;;4995081;28;19937;-51
2021/12/26 10:50:06;;;;;;;;;;;-1.30;99.90;;;;;;4994392;28;19922;-55
2021/12/26 10:52:34;;;;;;;;;;;-1.30;99.90;;;;;;4983588;28;19922;-48
2021/12/26 10:55:00;;;;;;;;;;;-1.20;99.90;;;;;;4974618;28;19914;-51
2021/12/26 10:57:30;;;;;;;;;;;-1.10;99.90;;;;;;4975471;28;21198;-49
2021/12/26 11:00:14;;;;;;;;;;;-1.00;99.90;;;;;;4974219;28;19917;-50
2021/12/26 11:02:43;;;;;;;;;;;-0.90;99.90;;;;;;4986301;28;19917;-52
2021/12/26 11:05:12;;;;;;;;;;;-0.90;99.90;;;;;;4994189;28;20290;-54
2021/12/26 11:07:39;;;;;;;;;;;-0.80;99.90;;;;;;4995602;28;19910;-51
2021/12/26 11:10:08;;;;;;;;;;;-0.70;99.90;;;;;;4995375;28;20223;-51
2021/12/26 11:12:38;;;;;;;;;;;-0.70;99.90;;;;;;4995892;28;19910;-50
2021/12/26 11:15:04;;;;;;;;;;;-0.70;99.90;;;;;;4995290;28;20210;-51
2021/12/26 11:17:34;;;;;;;;;;;-0.50;99.90;;;;;;4995113;28;19945;-51
2021/12/26 11:19:59;;;;;;;;;;;-0.40;99.90;;;;;;4995290;28;19914;-49
2021/12/26 11:22:25;;;;;;;;;;;-0.20;99.90;;;;;;4995277;28;19914;-50
2021/12/26 11:24:53;;;;;;;4.77;2.33;;;-0.10;99.90;;;;;;4995106;28;19909;-52
2021/12/26 11:27:20;;;;;;;3.77;2.63;;;0.00;99.90;;;;;;4993825;28;20251;-51
2021/12/26 11:29:48;;;;;;;5.70;2.30;;;0.10;99.90;;;;;;4995584;28;20559;-50
2021/12/26 11:32:18;;;;;;;4.53;2.27;;;0.30;99.90;;;;;;4994569;28;20179;-50
2021/12/26 11:34:48;;;;;;;3.97;2.57;;;0.40;99.90;;;;;;4995847;28;20199;-50
2021/12/26 11:37:15;;;;;;;5.10;2.40;;;0.50;99.90;;;;;;4995878;28;20171;-52
2021/12/26 11:39:43;;;;;;;3.57;2.87;;;0.50;99.90;;;;;;4996024;28;20186;-52
2021/12/26 11:42:20;;;;;;;;;;;0.70;99.90;;;;;;4996554;28;20092;-51
2021/12/26 11:44:55;;;;;;;;;;;0.90;99.90;;;;;;4995279;28;20250;-49
2021/12/26 11:47:41;;;;;;;4.13;2.37;;;1.00;99.90;;;;;;4994387;28;20239;-51
2021/12/26 11:50:25;;;;;;;4.55;3.00;;;1.20;99.90;;;;;;4993625;28;20398;-49
2021/12/26 11:53:06;;;;;;;4.10;3.00;;;1.40;99.90;;;;;;4991962;28;20517;-49
2021/12/26 11:55:41;;;;;;;4.63;3.00;;;1.60;99.90;;;;;;4992387;28;20430;-52
2021/12/26 11:58:21;;;;;;;3.95;2.63;;;1.90;99.90;;;;;;4990007;28;20386;-48
2021/12/26 12:00:54;;;;;;;3.53;2.75;;;2.10;99.90;;;;;;4991097;28;20390;-50
2021/12/26 12:03:26;;;;;;;3.38;2.53;;;2.20;99.90;;;;;;4991528;28;20398;-49
2021/12/26 12:05:53;;;;;;;3.78;2.50;;;2.40;99.90;;;;;;4990323;28;20402;-52
2021/12/26 12:08:31;;;;;;;4.70;2.70;;;2.70;99.90;;;;;;4989129;28;20772;-47
2021/12/26 12:11:00;;;;;;;3.65;2.40;;;2.80;99.90;;;;;;4986870;28;20515;-49
2021/12/26 12:13:26;;;;;;;3.47;2.28;;;2.80;99.90;;;;;;4986321;28;20499;-51
2021/12/26 12:16:10;;;;;;;3.63;2.17;;;2.90;99.90;;;;;;4987323;28;20450;-50
2021/12/26 12:18:59;;;;;;;3.77;2.63;;;3.10;99.90;;;;;;4989884;28;20837;-53
2021/12/26 12:21:33;;;;;;;4.18;2.80;;;3.10;99.90;;;;;;4991911;28;20409;-53
2021/12/26 12:24:07;;;;;;;4.40;2.95;;;3.20;99.90;;;;;;4991246;28;20656;-50
2021/12/26 12:26:48;;;;;;;3.90;2.95;;;3.20;99.90;;;;;;4990453;28;20476;-48
2021/12/26 12:29:48;;;;;;;4.00;2.40;;;3.20;99.90;;;;;;4991303;28;20390;-49
2021/12/26 12:32:21;;;;;;;2.80;2.25;;;3.10;99.90;;;;;;4986548;28;20872;-51
2021/12/26 12:35:04;;;;;;;2.75;2.30;;;3.10;99.90;;;;;;4992918;28;20682;-52
2021/12/26 12:37:41;;;;;;;4.80;3.35;;;3.00;99.90;;;;;;4993862;28;20406;-53
2021/12/26 12:40:12;;;;;;;5.63;3.42;;;3.00;99.90;;;;;;4990209;28;20379;-50
2021/12/26 12:42:40;;;;;;;9.50;4.10;;;3.20;99.90;;;;;;4990637;28;20825;-49
2021/12/26 12:45:07;;;;;;;4.15;2.47;;;3.40;99.90;;;;;;4993335;28;20382;-52
2021/12/26 12:47:32;;;;;;;5.65;2.85;;;3.20;99.90;;;;;;4992046;28;20437;-51
2021/12/26 12:50:02;;;;;;;4.30;2.73;;;3.40;99.90;;;;;;4991453;28;20578;-53
2021/12/26 12:52:46;;;;;;;4.57;3.00;;;3.60;99.90;;;;;;4990972;28;20414;-50
2021/12/26 12:55:42;;;;;;;7.40;3.45;;;3.80;99.90;;;;;;4989253;28;20403;-48
2021/12/26 12:58:31;;;;;;;5.57;3.65;;;3.90;99.90;;;;;;4989354;28;20477;-51
2021/12/26 13:00:58;;;;;;;4.68;3.00;;;3.90;99.90;;;;;;4990093;28;20382;-52
2021/12/26 13:03:24;;;;;;;3.13;2.60;;;3.70;99.90;;;;;;4989306;28;20497;-52
2021/12/26 13:05:51;;;;;;;3.75;2.80;;;3.50;99.90;;;;;;4991733;28;20481;-51
2021/12/26 13:08:20;;;;;;;4.72;3.05;;;3.70;99.90;;;;;;4992713;28;20455;-50
2021/12/26 13:10:56;;;;;;;4.00;3.10;;;3.90;99.90;;;;;;4992380;28;21000;-52
2021/12/26 13:13:23;;;;;;;5.60;3.40;;;4.10;99.90;;;;;;4993080;28;20444;-55
2021/12/26 13:16:02;;;;;;;5.65;3.15;;;4.10;99.90;;;;;;4990978;28;20393;-54
2021/12/26 13:18:31;;;;;;;5.47;3.20;;;4.20;99.90;;;;;;4991741;28;20406;-54
2021/12/26 13:21:00;;;;;;;7.32;3.88;;;4.10;99.90;;;;;;4993501;28;20395;-53
2021/12/26 13:23:28;;;;;;;5.75;3.50;;;4.30;99.90;;;;;;4995529;28;20858;-53
2021/12/26 13:25:54;;;;;;;5.82;3.90;;;4.30;99.90;;;;;;4995776;28;20394;-54
2021/12/26 13:28:26;;;;;;;5.57;4.00;;;4.30;99.90;;;;;;4988572;28;20478;-48
2021/12/26 13:30:55;;;;;;;4.47;3.00;;;4.20;99.50;;;;;;4987767;28;20407;-49
2021/12/26 13:33:22;;;;;;;6.40;3.27;;;3.90;99.00;;;;;;4985130;28;20596;-49
2021/12/26 13:35:49;;;;;;;3.97;3.00;;;3.70;99.20;;;;;;4981898;28;20185;-48
2021/12/26 13:38:15;;;;;;;4.88;2.80;;;3.70;99.70;;;;;;4978846;28;20481;-50
2021/12/26 13:40:44;;;;;;;4.53;2.63;;;3.80;99.90;;;;;;4979583;28;20440;-50
2021/12/26 13:43:10;;;;;;;3.38;2.65;;;3.90;99.10;;;;;;4979835;28;20586;-50
2021/12/26 13:45:41;;;;;;;4.30;2.80;;;4.00;98.70;;;;;;4982180;28;20474;-53
2021/12/26 13:48:08;;;;;;;3.53;2.80;;;4.10;98.80;;;;;;4984536;28;20398;-49
2021/12/26 13:50:34;;;;;;;4.28;3.08;;;4.20;99.00;;;;;;4983992;28;20556;-51
2021/12/26 13:53:08;;;;;;;4.10;2.80;;;4.20;99.10;;;;;;4984855;28;20751;-48
2021/12/26 13:55:35;;;;;;;2.90;2.55;;;4.20;98.30;;;;;;4985323;28;20644;-48
2021/12/26 13:58:05;;;;;;;4.28;2.53;;;4.10;98.10;;;;;;4984756;28;20383;-50